sensor_id;sensor_type;location;lat;lon;timestamp;temperature;humidity
69776;DHT22;57049;51.450;-2.516;2022-08-19T00:02:18;18.76;99.10
69776;DHT22;57049;51.450;-2.516;2022-08-19T00:04:47;18.75;99.37
69776;DHT22;57049;51.450;-2.516;2022-08-19T00:07:23;18.72;99.34
69776;DHT22;57049;51.450;-2.516;2022-08-19T00:09:49;18.69;99.42
69776;DHT22;57049;51.450;-2.516;2022-08-19T00:12:14;18.61;99.42
69776;DHT22;57049;51.450;-2.516;2022-08-19T00:14:43;18.58;98.82
69776;DHT22;57049;51.450;-2.516;2022-08-19T00:17:11;18.52;98.34
69776;DHT22;57049;51.450;-2.516;2022-08-19T00:19:38;18.51;98.39
69776;DHT22;57049;51.450;-2.516;2022-08-19T00:22:05;18.49;98.55
69776;DHT22;57049;51.450;-2.516;2022-08-19T00:24:31;18.52;98.22
69776;DHT22;57049;51.450;-2.516;2022-08-19T00:26:58;18.49;98.17
69776;DHT22;57049;51.450;-2.516;2022-08-19T00:29:24;18.54;98.50
69776;DHT22;57049;51.450;-2.516;2022-08-19T00:31:51;18.51;98.26
69776;DHT22;57049;51.450;-2.516;2022-08-19T00:34:21;18.49;98.31
69776;DHT22;57049;51.450;-2.516;2022-08-19T00:36:50;18.49;98.50
69776;DHT22;57049;51.450;-2.516;2022-08-19T00:39:16;18.48;98.20
69776;DHT22;57049;51.450;-2.516;2022-08-19T00:41:44;18.44;98.26
69776;DHT22;57049;51.450;-2.516;2022-08-19T00:44:21;18.44;98.01
69776;DHT22;57049;51.450;-2.516;2022-08-19T00:46:49;18.45;97.91
69776;DHT22;57049;51.450;-2.516;2022-08-19T00:49:36;18.38;98.02
69776;DHT22;57049;51.450;-2.516;2022-08-19T00:52:07;18.37;97.69
69776;DHT22;57049;51.450;-2.516;2022-08-19T00:54:35;18.38;97.93
69776;DHT22;57049;51.450;-2.516;2022-08-19T00:57:05;18.32;98.03
69776;DHT22;57049;51.450;-2.516;2022-08-19T00:59:33;18.32;98.11
69776;DHT22;57049;51.450;-2.516;2022-08-19T01:02:01;18.27;98.02
69776;DHT22;57049;51.450;-2.516;2022-08-19T01:04:27;18.28;98.53
69776;DHT22;57049;51.450;-2.516;2022-08-19T01:06:53;18.28;98.58
69776;DHT22;57049;51.450;-2.516;2022-08-19T01:09:18;18.28;98.75
69776;DHT22;57049;51.450;-2.516;2022-08-19T01:11:44;18.27;98.80
69776;DHT22;57049;51.450;-2.516;2022-08-19T01:14:10;18.28;98.61
69776;DHT22;57049;51.450;-2.516;2022-08-19T01:16:37;18.28;98.37
69776;DHT22;57049;51.450;-2.516;2022-08-19T01:19:10;18.35;98.17
69776;DHT22;57049;51.450;-2.516;2022-08-19T01:21:46;18.25;97.86
69776;DHT22;57049;51.450;-2.516;2022-08-19T01:24:14;18.24;98.50
69776;DHT22;57049;51.450;-2.516;2022-08-19T01:26:41;18.24;97.55
69776;DHT22;57049;51.450;-2.516;2022-08-19T01:29:10;18.17;97.95
69776;DHT22;57049;51.450;-2.516;2022-08-19T01:31:36;18.11;98.20
69776;DHT22;57049;51.450;-2.516;2022-08-19T01:34:04;18.11;98.26
69776;DHT22;57049;51.450;-2.516;2022-08-19T01:36:34;18.10;98.17
69776;DHT22;57049;51.450;-2.516;2022-08-19T01:39:03;18.11;98.05
69776;DHT22;57049;51.450;-2.516;2022-08-19T01:41:29;18.10;98.06
69776;DHT22;57049;51.450;-2.516;2022-08-19T01:43:54;18.05;98.22
69776;DHT22;57049;51.450;-2.516;2022-08-19T01:46:21;18.05;98.13
69776;DHT22;57049;51.450;-2.516;2022-08-19T01:48:47;18.08;97.80
69776;DHT22;57049;51.450;-2.516;2022-08-19T01:51:13;18.07;97.43
69776;DHT22;57049;51.450;-2.516;2022-08-19T01:53:39;18.07;98.07
69776;DHT22;57049;51.450;-2.516;2022-08-19T01:56:08;18.04;98.02
69776;DHT22;57049;51.450;-2.516;2022-08-19T01:58:45;18.03;97.11
69776;DHT22;57049;51.450;-2.516;2022-08-19T02:01:12;18.01;96.60
69776;DHT22;57049;51.450;-2.516;2022-08-19T02:03:39;18.00;96.63
69776;DHT22;57049;51.450;-2.516;2022-08-19T02:06:05;17.96;96.51
69776;DHT22;57049;51.450;-2.516;2022-08-19T02:08:32;17.87;96.80
69776;DHT22;57049;51.450;-2.516;2022-08-19T02:10:57;17.74;96.35
69776;DHT22;57049;51.450;-2.516;2022-08-19T02:13:24;17.70;96.64
69776;DHT22;57049;51.450;-2.516;2022-08-19T02:15:50;17.65;96.85
69776;DHT22;57049;51.450;-2.516;2022-08-19T02:18:16;17.60;97.04
69776;DHT22;57049;51.450;-2.516;2022-08-19T02:20:44;17.52;97.20
69776;DHT22;57049;51.450;-2.516;2022-08-19T02:23:12;17.60;96.88
69776;DHT22;57049;51.450;-2.516;2022-08-19T02:25:39;17.65;96.55
69776;DHT22;57049;51.450;-2.516;2022-08-19T02:28:05;17.56;96.99
69776;DHT22;57049;51.450;-2.516;2022-08-19T02:30:31;17.50;97.31
69776;DHT22;57049;51.450;-2.516;2022-08-19T02:32:57;17.54;97.27
69776;DHT22;57049;51.450;-2.516;2022-08-19T02:35:23;17.53;97.31
69776;DHT22;57049;51.450;-2.516;2022-08-19T02:37:48;17.59;96.91
69776;DHT22;57049;51.450;-2.516;2022-08-19T02:40:33;17.62;97.00
69776;DHT22;57049;51.450;-2.516;2022-08-19T02:43:03;17.65;96.96
69776;DHT22;57049;51.450;-2.516;2022-08-19T02:45:36;17.62;97.35
69776;DHT22;57049;51.450;-2.516;2022-08-19T02:48:02;17.63;96.95
69776;DHT22;57049;51.450;-2.516;2022-08-19T02:50:28;17.63;96.97
69776;DHT22;57049;51.450;-2.516;2022-08-19T02:52:54;17.63;96.83
69776;DHT22;57049;51.450;-2.516;2022-08-19T02:55:19;17.59;97.37
69776;DHT22;57049;51.450;-2.516;2022-08-19T02:57:46;17.60;97.04
69776;DHT22;57049;51.450;-2.516;2022-08-19T03:00:12;17.62;96.49
69776;DHT22;57049;51.450;-2.516;2022-08-19T03:02:38;17.59;96.40
69776;DHT22;57049;51.450;-2.516;2022-08-19T03:05:05;17.65;96.92
69776;DHT22;57049;51.450;-2.516;2022-08-19T03:07:31;17.69;96.22
69776;DHT22;57049;51.450;-2.516;2022-08-19T03:09:56;17.63;96.80
69776;DHT22;57049;51.450;-2.516;2022-08-19T03:12:22;17.53;97.22
69776;DHT22;57049;51.450;-2.516;2022-08-19T03:14:49;17.50;97.56
69776;DHT22;57049;51.450;-2.516;2022-08-19T03:17:14;17.40;97.48
69776;DHT22;57049;51.450;-2.516;2022-08-19T03:19:40;17.35;97.89
69776;DHT22;57049;51.450;-2.516;2022-08-19T03:22:05;17.22;98.22
69776;DHT22;57049;51.450;-2.516;2022-08-19T03:24:31;17.19;98.54
69776;DHT22;57049;51.450;-2.516;2022-08-19T03:26:57;17.16;98.13
69776;DHT22;57049;51.450;-2.516;2022-08-19T03:29:25;17.12;97.84
69776;DHT22;57049;51.450;-2.516;2022-08-19T03:31:51;17.15;97.78
69776;DHT22;57049;51.450;-2.516;2022-08-19T03:34:23;17.14;97.29
69776;DHT22;57049;51.450;-2.516;2022-08-19T03:36:51;17.14;97.15
69776;DHT22;57049;51.450;-2.516;2022-08-19T03:39:17;17.12;97.32
69776;DHT22;57049;51.450;-2.516;2022-08-19T03:41:44;17.05;96.33
69776;DHT22;57049;51.450;-2.516;2022-08-19T03:44:10;17.04;95.33
69776;DHT22;57049;51.450;-2.516;2022-08-19T03:46:35;17.14;94.34
69776;DHT22;57049;51.450;-2.516;2022-08-19T03:49:04;17.11;94.80
69776;DHT22;57049;51.450;-2.516;2022-08-19T03:51:37;17.09;94.33
69776;DHT22;57049;51.450;-2.516;2022-08-19T03:54:06;17.09;93.64
69776;DHT22;57049;51.450;-2.516;2022-08-19T03:56:34;16.99;93.87
69776;DHT22;57049;51.450;-2.516;2022-08-19T03:59:02;16.95;94.67
69776;DHT22;57049;51.450;-2.516;2022-08-19T04:01:28;16.87;94.22
69776;DHT22;57049;51.450;-2.516;2022-08-19T04:03:55;16.91;93.74
69776;DHT22;57049;51.450;-2.516;2022-08-19T04:06:23;16.88;94.36
69776;DHT22;57049;51.450;-2.516;2022-08-19T04:08:51;16.82;93.90
69776;DHT22;57049;51.450;-2.516;2022-08-19T04:11:23;16.79;93.94
69776;DHT22;57049;51.450;-2.516;2022-08-19T04:13:50;16.77;94.58
69776;DHT22;57049;51.450;-2.516;2022-08-19T04:16:17;16.78;93.84
69776;DHT22;57049;51.450;-2.516;2022-08-19T04:18:42;16.72;93.89
69776;DHT22;57049;51.450;-2.516;2022-08-19T04:21:15;16.68;94.31
69776;DHT22;57049;51.450;-2.516;2022-08-19T04:23:41;16.61;94.26
69776;DHT22;57049;51.450;-2.516;2022-08-19T04:26:13;16.56;94.20
69776;DHT22;57049;51.450;-2.516;2022-08-19T04:28:39;16.51;94.52
69776;DHT22;57049;51.450;-2.516;2022-08-19T04:31:05;16.47;94.98
69776;DHT22;57049;51.450;-2.516;2022-08-19T04:33:31;16.40;94.65
69776;DHT22;57049;51.450;-2.516;2022-08-19T04:35:56;16.33;94.88
69776;DHT22;57049;51.450;-2.516;2022-08-19T04:38:23;16.21;95.16
69776;DHT22;57049;51.450;-2.516;2022-08-19T04:40:51;16.12;95.20
69776;DHT22;57049;51.450;-2.516;2022-08-19T04:43:37;16.02;95.69
69776;DHT22;57049;51.450;-2.516;2022-08-19T04:46:07;15.92;95.94
69776;DHT22;57049;51.450;-2.516;2022-08-19T04:48:33;15.86;96.30
69776;DHT22;57049;51.450;-2.516;2022-08-19T04:50:59;15.82;96.26
69776;DHT22;57049;51.450;-2.516;2022-08-19T04:53:26;15.76;96.70
69776;DHT22;57049;51.450;-2.516;2022-08-19T04:55:57;15.82;96.72
69776;DHT22;57049;51.450;-2.516;2022-08-19T04:58:26;15.79;96.59
69776;DHT22;57049;51.450;-2.516;2022-08-19T05:00:52;15.81;96.90
69776;DHT22;57049;51.450;-2.516;2022-08-19T05:03:18;15.70;97.13
69776;DHT22;57049;51.450;-2.516;2022-08-19T05:05:45;15.61;97.20
69776;DHT22;57049;51.450;-2.516;2022-08-19T05:08:15;15.58;97.49
69776;DHT22;57049;51.450;-2.516;2022-08-19T05:10:46;15.54;97.43
69776;DHT22;57049;51.450;-2.516;2022-08-19T05:13:14;15.54;97.35
69776;DHT22;57049;51.450;-2.516;2022-08-19T05:15:40;15.54;97.47
69776;DHT22;57049;51.450;-2.516;2022-08-19T05:18:06;15.52;97.77
69776;DHT22;57049;51.450;-2.516;2022-08-19T05:20:50;15.52;97.38
69776;DHT22;57049;51.450;-2.516;2022-08-19T05:23:34;15.48;97.55
69776;DHT22;57049;51.450;-2.516;2022-08-19T05:25:59;15.42;97.61
69776;DHT22;57049;51.450;-2.516;2022-08-19T05:28:25;15.41;97.80
69776;DHT22;57049;51.450;-2.516;2022-08-19T05:30:51;15.38;98.05
69776;DHT22;57049;51.450;-2.516;2022-08-19T05:33:17;15.35;97.93
69776;DHT22;57049;51.450;-2.516;2022-08-19T05:35:43;15.34;97.75
69776;DHT22;57049;51.450;-2.516;2022-08-19T05:38:09;15.36;98.09
69776;DHT22;57049;51.450;-2.516;2022-08-19T05:40:37;15.39;98.02
69776;DHT22;57049;51.450;-2.516;2022-08-19T05:43:05;15.44;97.74
69776;DHT22;57049;51.450;-2.516;2022-08-19T05:45:37;15.48;97.73
69776;DHT22;57049;51.450;-2.516;2022-08-19T05:48:03;15.45;97.40
69776;DHT22;57049;51.450;-2.516;2022-08-19T05:50:29;15.39;97.63
69776;DHT22;57049;51.450;-2.516;2022-08-19T05:52:55;15.49;97.28
69776;DHT22;57049;51.450;-2.516;2022-08-19T05:55:20;15.49;96.80
69776;DHT22;57049;51.450;-2.516;2022-08-19T05:57:49;15.48;96.98
69776;DHT22;57049;51.450;-2.516;2022-08-19T06:00:15;15.65;96.18
69776;DHT22;57049;51.450;-2.516;2022-08-19T06:02:41;15.87;95.55
69776;DHT22;57049;51.450;-2.516;2022-08-19T06:05:07;16.05;93.92
69776;DHT22;57049;51.450;-2.516;2022-08-19T06:07:37;16.05;93.66
69776;DHT22;57049;51.450;-2.516;2022-08-19T06:10:04;16.30;92.66
69776;DHT22;57049;51.450;-2.516;2022-08-19T06:12:31;17.83;87.53
69776;DHT22;57049;51.450;-2.516;2022-08-19T06:15:01;19.16;82.04
69776;DHT22;57049;51.450;-2.516;2022-08-19T06:17:27;20.01;77.96
69776;DHT22;57049;51.450;-2.516;2022-08-19T06:19:53;20.63;74.75
69776;DHT22;57049;51.450;-2.516;2022-08-19T06:22:18;21.20;73.38
69776;DHT22;57049;51.450;-2.516;2022-08-19T06:24:44;21.45;71.32
69776;DHT22;57049;51.450;-2.516;2022-08-19T06:27:10;21.89;70.32
69776;DHT22;57049;51.450;-2.516;2022-08-19T06:29:35;21.51;69.60
69776;DHT22;57049;51.450;-2.516;2022-08-19T06:32:02;22.10;67.13
69776;DHT22;57049;51.450;-2.516;2022-08-19T06:34:30;22.74;65.19
69776;DHT22;57049;51.450;-2.516;2022-08-19T06:36:58;22.47;64.92
69776;DHT22;57049;51.450;-2.516;2022-08-19T06:39:29;22.94;64.26
69776;DHT22;57049;51.450;-2.516;2022-08-19T06:41:57;23.39;62.95
69776;DHT22;57049;51.450;-2.516;2022-08-19T06:44:25;23.37;63.99
69776;DHT22;57049;51.450;-2.516;2022-08-19T06:46:53;23.61;63.01
69776;DHT22;57049;51.450;-2.516;2022-08-19T06:49:22;23.49;62.22
69776;DHT22;57049;51.450;-2.516;2022-08-19T06:51:49;23.51;61.68
69776;DHT22;57049;51.450;-2.516;2022-08-19T06:57:06;24.69;57.17
69776;DHT22;57049;51.450;-2.516;2022-08-19T06:59:34;24.47;56.32
69776;DHT22;57049;51.450;-2.516;2022-08-19T07:02:04;24.18;58.58
69776;DHT22;57049;51.450;-2.516;2022-08-19T07:04:33;24.57;56.46
69776;DHT22;57049;51.450;-2.516;2022-08-19T07:07:06;24.34;58.23
69776;DHT22;57049;51.450;-2.516;2022-08-19T07:09:41;24.30;55.16
69776;DHT22;57049;51.450;-2.516;2022-08-19T07:12:11;23.85;55.57
69776;DHT22;57049;51.450;-2.516;2022-08-19T07:14:39;23.51;58.43
69776;DHT22;57049;51.450;-2.516;2022-08-19T07:17:09;23.32;58.54
69776;DHT22;57049;51.450;-2.516;2022-08-19T07:19:36;23.55;57.15
69776;DHT22;57049;51.450;-2.516;2022-08-19T07:22:05;23.83;55.69
69776;DHT22;57049;51.450;-2.516;2022-08-19T07:24:31;23.61;54.94
69776;DHT22;57049;51.450;-2.516;2022-08-19T07:26:58;22.61;60.00
69776;DHT22;57049;51.450;-2.516;2022-08-19T07:29:26;22.57;58.09
69776;DHT22;57049;51.450;-2.516;2022-08-19T07:31:54;22.67;56.59
69776;DHT22;57049;51.450;-2.516;2022-08-19T07:34:22;23.61;54.69
69776;DHT22;57049;51.450;-2.516;2022-08-19T07:36:49;23.66;51.42
69776;DHT22;57049;51.450;-2.516;2022-08-19T07:39:17;23.77;54.85
69776;DHT22;57049;51.450;-2.516;2022-08-19T07:41:44;24.23;51.61
69776;DHT22;57049;51.450;-2.516;2022-08-19T07:44:10;24.54;50.42
69776;DHT22;57049;51.450;-2.516;2022-08-19T07:46:39;24.84;51.74
69776;DHT22;57049;51.450;-2.516;2022-08-19T07:49:06;25.15;48.45
69776;DHT22;57049;51.450;-2.516;2022-08-19T07:51:32;24.95;47.67
69776;DHT22;57049;51.450;-2.516;2022-08-19T07:53:58;24.63;47.93
69776;DHT22;57049;51.450;-2.516;2022-08-19T07:56:24;25.25;49.51
69776;DHT22;57049;51.450;-2.516;2022-08-19T07:58:50;25.29;44.92
69776;DHT22;57049;51.450;-2.516;2022-08-19T08:01:20;25.45;45.36
69776;DHT22;57049;51.450;-2.516;2022-08-19T08:03:46;25.26;46.31
69776;DHT22;57049;51.450;-2.516;2022-08-19T08:06:30;25.25;45.48
69776;DHT22;57049;51.450;-2.516;2022-08-19T08:09:16;25.33;46.84
69776;DHT22;57049;51.450;-2.516;2022-08-19T08:11:57;25.53;45.48
69776;DHT22;57049;51.450;-2.516;2022-08-19T08:14:30;25.87;45.36
69776;DHT22;57049;51.450;-2.516;2022-08-19T08:16:57;25.67;42.55
69776;DHT22;57049;51.450;-2.516;2022-08-19T08:19:25;25.47;44.28
69776;DHT22;57049;51.450;-2.516;2022-08-19T08:21:51;26.25;43.53
69776;DHT22;57049;51.450;-2.516;2022-08-19T08:24:17;26.61;43.27
69776;DHT22;57049;51.450;-2.516;2022-08-19T08:26:44;25.83;43.02
69776;DHT22;57049;51.450;-2.516;2022-08-19T08:29:10;26.25;44.63
69776;DHT22;57049;51.450;-2.516;2022-08-19T08:31:36;26.21;42.44
69776;DHT22;57049;51.450;-2.516;2022-08-19T08:34:02;26.20;44.00
69776;DHT22;57049;51.450;-2.516;2022-08-19T08:36:28;25.80;43.63
69776;DHT22;57049;51.450;-2.516;2022-08-19T08:38:53;25.71;44.45
69776;DHT22;57049;51.450;-2.516;2022-08-19T08:41:31;25.28;44.65
69776;DHT22;57049;51.450;-2.516;2022-08-19T08:44:00;24.68;41.43
69776;DHT22;57049;51.450;-2.516;2022-08-19T08:46:44;23.90;44.47
69776;DHT22;57049;51.450;-2.516;2022-08-19T08:52:06;22.54;46.18
69776;DHT22;57049;51.450;-2.516;2022-08-19T08:54:41;22.67;48.21
69776;DHT22;57049;51.450;-2.516;2022-08-19T08:57:35;22.59;46.52
69776;DHT22;57049;51.450;-2.516;2022-08-19T09:00:00;21.96;50.19
69776;DHT22;57049;51.450;-2.516;2022-08-19T09:02:27;21.72;49.06
69776;DHT22;57049;51.450;-2.516;2022-08-19T09:04:54;20.97;48.00
69776;DHT22;57049;51.450;-2.516;2022-08-19T09:07:43;20.96;50.52
69776;DHT22;57049;51.450;-2.516;2022-08-19T09:10:21;21.04;52.85
69776;DHT22;57049;51.450;-2.516;2022-08-19T09:15:43;21.00;53.02
69776;DHT22;57049;51.450;-2.516;2022-08-19T09:18:10;21.20;55.17
69776;DHT22;57049;51.450;-2.516;2022-08-19T09:20:36;21.24;52.01
69776;DHT22;57049;51.450;-2.516;2022-08-19T09:23:02;21.11;51.97
69776;DHT22;57049;51.450;-2.516;2022-08-19T09:25:27;21.03;50.67
69776;DHT22;57049;51.450;-2.516;2022-08-19T09:27:54;21.14;50.33
69776;DHT22;57049;51.450;-2.516;2022-08-19T09:30:27;21.20;50.09
69776;DHT22;57049;51.450;-2.516;2022-08-19T09:32:53;20.59;49.32
69776;DHT22;57049;51.450;-2.516;2022-08-19T09:35:21;20.57;50.25
69776;DHT22;57049;51.450;-2.516;2022-08-19T09:37:48;20.97;50.95
69776;DHT22;57049;51.450;-2.516;2022-08-19T09:40:15;21.30;52.36
69776;DHT22;57049;51.450;-2.516;2022-08-19T09:42:41;21.11;50.06
69776;DHT22;57049;51.450;-2.516;2022-08-19T09:45:09;20.70;53.09
69776;DHT22;57049;51.450;-2.516;2022-08-19T09:47:35;20.70;49.63
69776;DHT22;57049;51.450;-2.516;2022-08-19T09:50:05;20.87;49.60
69776;DHT22;57049;51.450;-2.516;2022-08-19T09:52:30;20.72;50.92
69776;DHT22;57049;51.450;-2.516;2022-08-19T09:54:56;21.04;50.49
69776;DHT22;57049;51.450;-2.516;2022-08-19T09:57:21;21.21;50.84
69776;DHT22;57049;51.450;-2.516;2022-08-19T09:59:47;21.28;51.75
69776;DHT22;57049;51.450;-2.516;2022-08-19T10:02:13;21.41;52.14
69776;DHT22;57049;51.450;-2.516;2022-08-19T10:04:39;21.30;51.03
69776;DHT22;57049;51.450;-2.516;2022-08-19T10:07:22;21.07;51.29
69776;DHT22;57049;51.450;-2.516;2022-08-19T10:09:48;20.65;51.71
69776;DHT22;57049;51.450;-2.516;2022-08-19T10:12:13;20.53;52.99
69776;DHT22;57049;51.450;-2.516;2022-08-19T10:14:40;20.22;55.14
69776;DHT22;57049;51.450;-2.516;2022-08-19T10:17:06;20.43;54.03
69776;DHT22;57049;51.450;-2.516;2022-08-19T10:19:31;20.50;54.52
69776;DHT22;57049;51.450;-2.516;2022-08-19T10:22:03;20.39;56.00
69776;DHT22;57049;51.450;-2.516;2022-08-19T10:24:29;19.92;57.73
69776;DHT22;57049;51.450;-2.516;2022-08-19T10:26:56;19.79;58.48
69776;DHT22;57049;51.450;-2.516;2022-08-19T10:29:22;19.70;57.96
69776;DHT22;57049;51.450;-2.516;2022-08-19T10:31:47;19.68;57.76
69776;DHT22;57049;51.450;-2.516;2022-08-19T10:34:12;19.67;58.76
69776;DHT22;57049;51.450;-2.516;2022-08-19T10:36:38;19.97;58.60
69776;DHT22;57049;51.450;-2.516;2022-08-19T10:39:07;20.04;59.60
69776;DHT22;57049;51.450;-2.516;2022-08-19T10:41:35;20.35;59.56
69776;DHT22;57049;51.450;-2.516;2022-08-19T10:44:04;20.52;59.61
69776;DHT22;57049;51.450;-2.516;2022-08-19T10:46:30;20.83;58.05
69776;DHT22;57049;51.450;-2.516;2022-08-19T10:48:58;21.06;57.63
69776;DHT22;57049;51.450;-2.516;2022-08-19T10:51:24;21.24;58.28
69776;DHT22;57049;51.450;-2.516;2022-08-19T10:54:08;21.27;58.99
69776;DHT22;57049;51.450;-2.516;2022-08-19T10:56:35;21.28;58.29
69776;DHT22;57049;51.450;-2.516;2022-08-19T10:59:27;21.17;58.12
69776;DHT22;57049;51.450;-2.516;2022-08-19T11:02:02;20.96;57.87
69776;DHT22;57049;51.450;-2.516;2022-08-19T11:04:28;21.03;56.94
69776;DHT22;57049;51.450;-2.516;2022-08-19T11:06:53;21.55;59.08
69776;DHT22;57049;51.450;-2.516;2022-08-19T11:09:21;21.47;53.62
69776;DHT22;57049;51.450;-2.516;2022-08-19T11:11:50;21.58;57.19
69776;DHT22;57049;51.450;-2.516;2022-08-19T11:14:17;21.78;55.15
69776;DHT22;57049;51.450;-2.516;2022-08-19T11:16:45;21.75;55.86
69776;DHT22;57049;51.450;-2.516;2022-08-19T11:19:11;22.09;55.05
69776;DHT22;57049;51.450;-2.516;2022-08-19T11:21:42;21.92;55.87
69776;DHT22;57049;51.450;-2.516;2022-08-19T11:24:13;21.78;57.78
69776;DHT22;57049;51.450;-2.516;2022-08-19T11:26:41;21.47;55.02
69776;DHT22;57049;51.450;-2.516;2022-08-19T11:29:09;21.06;54.29
69776;DHT22;57049;51.450;-2.516;2022-08-19T11:31:40;20.70;55.05
69776;DHT22;57049;51.450;-2.516;2022-08-19T11:34:08;21.28;54.51
69776;DHT22;57049;51.450;-2.516;2022-08-19T11:36:38;20.77;55.09
69776;DHT22;57049;51.450;-2.516;2022-08-19T11:39:08;20.62;55.29
69776;DHT22;57049;51.450;-2.516;2022-08-19T11:41:34;20.40;55.34
69776;DHT22;57049;51.450;-2.516;2022-08-19T11:43:59;20.33;56.14
69776;DHT22;57049;51.450;-2.516;2022-08-19T11:46:26;20.21;55.08
69776;DHT22;57049;51.450;-2.516;2022-08-19T11:48:55;20.16;56.17
69776;DHT22;57049;51.450;-2.516;2022-08-19T11:51:22;20.29;54.71
69776;DHT22;57049;51.450;-2.516;2022-08-19T11:53:50;20.69;54.91
69776;DHT22;57049;51.450;-2.516;2022-08-19T11:56:16;21.50;55.14
69776;DHT22;57049;51.450;-2.516;2022-08-19T11:58:42;21.55;52.79
69776;DHT22;57049;51.450;-2.516;2022-08-19T12:01:09;21.28;52.97
69776;DHT22;57049;51.450;-2.516;2022-08-19T12:03:36;21.83;55.28
69776;DHT22;57049;51.450;-2.516;2022-08-19T12:06:10;21.41;54.06
69776;DHT22;57049;51.450;-2.516;2022-08-19T12:08:37;21.23;54.29
69776;DHT22;57049;51.450;-2.516;2022-08-19T12:11:04;21.41;53.56
69776;DHT22;57049;51.450;-2.516;2022-08-19T12:13:33;21.48;55.19
69776;DHT22;57049;51.450;-2.516;2022-08-19T12:15:59;22.10;56.38
69776;DHT22;57049;51.450;-2.516;2022-08-19T12:18:25;22.23;53.14
69776;DHT22;57049;51.450;-2.516;2022-08-19T12:20:53;22.12;55.26
69776;DHT22;57049;51.450;-2.516;2022-08-19T12:23:19;21.11;53.37
69776;DHT22;57049;51.450;-2.516;2022-08-19T12:25:47;21.23;55.13
69776;DHT22;57049;51.450;-2.516;2022-08-19T12:28:16;20.99;56.52
69776;DHT22;57049;51.450;-2.516;2022-08-19T12:30:42;20.94;57.11
69776;DHT22;57049;51.450;-2.516;2022-08-19T12:33:08;20.80;57.46
69776;DHT22;57049;51.450;-2.516;2022-08-19T12:35:33;21.04;58.17
69776;DHT22;57049;51.450;-2.516;2022-08-19T12:37:59;21.55;54.80
69776;DHT22;57049;51.450;-2.516;2022-08-19T12:40:25;21.48;55.14
69776;DHT22;57049;51.450;-2.516;2022-08-19T12:42:50;21.82;55.20
69776;DHT22;57049;51.450;-2.516;2022-08-19T12:45:16;22.03;52.64
69776;DHT22;57049;51.450;-2.516;2022-08-19T12:47:42;22.35;53.17
69776;DHT22;57049;51.450;-2.516;2022-08-19T12:50:08;22.57;50.57
69776;DHT22;57049;51.450;-2.516;2022-08-19T12:52:37;22.22;51.83
69776;DHT22;57049;51.450;-2.516;2022-08-19T12:55:04;22.14;51.28
69776;DHT22;57049;51.450;-2.516;2022-08-19T12:57:30;22.43;52.11
69776;DHT22;57049;51.450;-2.516;2022-08-19T13:02:32;22.12;51.27
69776;DHT22;57049;51.450;-2.516;2022-08-19T13:05:00;22.28;50.81
69776;DHT22;57049;51.450;-2.516;2022-08-19T13:07:25;22.53;50.65
69776;DHT22;57049;51.450;-2.516;2022-08-19T13:09:51;23.16;50.19
69776;DHT22;57049;51.450;-2.516;2022-08-19T13:12:17;22.57;50.19
69776;DHT22;57049;51.450;-2.516;2022-08-19T13:14:46;22.91;51.56
69776;DHT22;57049;51.450;-2.516;2022-08-19T13:17:16;23.19;49.57
69776;DHT22;57049;51.450;-2.516;2022-08-19T13:19:41;23.55;50.56
69776;DHT22;57049;51.450;-2.516;2022-08-19T13:22:07;23.05;50.16
69776;DHT22;57049;51.450;-2.516;2022-08-19T13:24:32;22.98;49.08
69776;DHT22;57049;51.450;-2.516;2022-08-19T13:26:59;23.00;48.94
69776;DHT22;57049;51.450;-2.516;2022-08-19T13:29:25;23.05;49.94
69776;DHT22;57049;51.450;-2.516;2022-08-19T13:32:09;22.94;48.52
69776;DHT22;57049;51.450;-2.516;2022-08-19T13:34:53;22.78;50.06
69776;DHT22;57049;51.450;-2.516;2022-08-19T13:37:18;23.07;50.81
69776;DHT22;57049;51.450;-2.516;2022-08-19T13:40:04;23.25;49.53
69776;DHT22;57049;51.450;-2.516;2022-08-19T13:42:30;23.00;48.13
69776;DHT22;57049;51.450;-2.516;2022-08-19T13:44:56;22.98;48.42
69776;DHT22;57049;51.450;-2.516;2022-08-19T13:47:23;22.78;47.08
69776;DHT22;57049;51.450;-2.516;2022-08-19T13:49:49;22.60;48.06
69776;DHT22;57049;51.450;-2.516;2022-08-19T13:52:15;22.37;48.66
69776;DHT22;57049;51.450;-2.516;2022-08-19T13:54:40;22.50;49.87
69776;DHT22;57049;51.450;-2.516;2022-08-19T13:57:06;22.60;48.08
69776;DHT22;57049;51.450;-2.516;2022-08-19T13:59:31;22.75;49.81
69776;DHT22;57049;51.450;-2.516;2022-08-19T14:01:59;22.94;49.53
69776;DHT22;57049;51.450;-2.516;2022-08-19T14:04:25;23.12;48.47
69776;DHT22;57049;51.450;-2.516;2022-08-19T14:06:50;22.88;47.88
69776;DHT22;57049;51.450;-2.516;2022-08-19T14:09:15;22.65;49.24
69776;DHT22;57049;51.450;-2.516;2022-08-19T14:11:41;22.80;48.04
69776;DHT22;57049;51.450;-2.516;2022-08-19T14:14:06;22.75;49.86
69776;DHT22;57049;51.450;-2.516;2022-08-19T14:16:32;22.73;49.57
69776;DHT22;57049;51.450;-2.516;2022-08-19T14:18:57;22.80;50.17
69776;DHT22;57049;51.450;-2.516;2022-08-19T14:21:23;22.56;48.57
69776;DHT22;57049;51.450;-2.516;2022-08-19T14:23:50;22.53;49.16
69776;DHT22;57049;51.450;-2.516;2022-08-19T14:26:17;22.60;50.29
69776;DHT22;57049;51.450;-2.516;2022-08-19T14:28:44;22.97;49.34
69776;DHT22;57049;51.450;-2.516;2022-08-19T14:31:11;22.97;50.44
69776;DHT22;57049;51.450;-2.516;2022-08-19T14:33:37;23.18;47.29
69776;DHT22;57049;51.450;-2.516;2022-08-19T14:36:04;22.26;51.32
69776;DHT22;57049;51.450;-2.516;2022-08-19T14:38:29;21.77;51.79
69776;DHT22;57049;51.450;-2.516;2022-08-19T14:41:39;22.39;50.37
69776;DHT22;57049;51.450;-2.516;2022-08-19T14:43:58;23.24;49.46
69776;DHT22;57049;51.450;-2.516;2022-08-19T14:46:26;23.24;48.51
69776;DHT22;57049;51.450;-2.516;2022-08-19T14:48:54;23.31;50.98
69776;DHT22;57049;51.450;-2.516;2022-08-19T14:51:21;23.10;50.13
69776;DHT22;57049;51.450;-2.516;2022-08-19T14:53:48;23.10;49.67
69776;DHT22;57049;51.450;-2.516;2022-08-19T14:56:16;22.35;50.37
69776;DHT22;57049;51.450;-2.516;2022-08-19T14:58:42;22.98;51.29
69776;DHT22;57049;51.450;-2.516;2022-08-19T15:01:09;22.37;51.68
69776;DHT22;57049;51.450;-2.516;2022-08-19T15:03:35;22.91;50.17
69776;DHT22;57049;51.450;-2.516;2022-08-19T15:06:03;22.93;49.07
69776;DHT22;57049;51.450;-2.516;2022-08-19T15:08:30;23.04;47.24
69776;DHT22;57049;51.450;-2.516;2022-08-19T15:10:57;22.91;48.23
69776;DHT22;57049;51.450;-2.516;2022-08-19T15:13:24;22.90;49.93
69776;DHT22;57049;51.450;-2.516;2022-08-19T15:15:51;22.65;50.95
69776;DHT22;57049;51.450;-2.516;2022-08-19T15:18:17;22.61;49.98
69776;DHT22;57049;51.450;-2.516;2022-08-19T15:20:43;22.93;50.28
69776;DHT22;57049;51.450;-2.516;2022-08-19T15:23:09;22.22;52.25
69776;DHT22;57049;51.450;-2.516;2022-08-19T15:25:36;21.93;52.63
69776;DHT22;57049;51.450;-2.516;2022-08-19T15:28:02;22.20;52.21
69776;DHT22;57049;51.450;-2.516;2022-08-19T15:30:28;22.32;50.85
69776;DHT22;57049;51.450;-2.516;2022-08-19T15:32:55;21.93;50.75